Time;durP1;ratioP1;P1;durP2;ratioP2;P2;SDS_P1;SDS_P2;PMS_P1;PMS_P2;Temp;Humidity;BMP_temperature;BMP_pressure;BME280_temperature;BME280_humidity;BME280_pressure;Samples;Min_cycle;Max_cycle;Signal;HPM_P1;HPM_P2
2022/07/20 00:01:48;;;;;;;;;;;;;;;18.14;48.73;100962.15;1719215;83;20196;-74
2022/07/20 00:04:16;;;;;;;;;;;;;;;18.12;48.87;100961.50;1679887;84;20236;-74
2022/07/20 00:06:42;;;;;;;;;;;;;;;18.05;49.02;100962.01;1700114;84;22395;-74
2022/07/20 00:11:52;;;;;;;;;;;;;;;17.96;49.28;100963.25;1700125;84;20146;-74
2022/07/20 00:14:18;;;;;;;;;;;;;;;17.93;49.41;100963.66;1698721;84;20180;-74
2022/07/20 00:16:44;;;;;;;;;;;;;;;17.89;49.53;100965.94;1687462;84;20185;-74
2022/07/20 00:19:09;;;;;;;;;;;;;;;17.87;49.63;100956.39;1700872;84;21115;-73
2022/07/20 00:21:35;;;;;;;;;;;;;;;17.83;49.76;100961.88;1700950;84;20219;-74
2022/07/20 00:24:01;;;;;;;;;;;;;;;17.78;49.89;100962.98;1681055;84;20222;-74
2022/07/20 00:26:27;;;;;;;;;;;;;;;17.75;50.03;100953.95;1700829;84;20172;-74
2022/07/20 00:28:53;;;;;;;;;;;;;;;17.72;50.16;100951.67;1700942;84;20252;-74
2022/07/20 00:31:19;;;;;;;;;;;;;;;17.69;50.24;100956.13;1693629;84;21075;-74
2022/07/20 00:33:48;;;;;;;;;;;;;;;17.65;50.32;100949.47;1700729;84;20151;-74
2022/07/20 00:36:14;;;;;;;;;;;;;;;17.62;50.43;100951.22;1700588;84;20454;-74
2022/07/20 00:38:40;;;;;;;;;;;;;;;17.58;50.55;100951.30;1700805;84;20166;-73
2022/07/20 00:41:06;;;;;;;;;;;;;;;17.54;50.66;100958.94;1693279;84;20176;-73
2022/07/20 00:43:55;;;;;;;;;;;;;;;17.53;50.73;100958.61;1700814;84;21838;-74
2022/07/20 00:46:21;;;;;;;;;;;;;;;17.52;50.77;100957.48;1700625;84;20168;-73
2022/07/20 00:48:47;;;;;;;;;;;;;;;17.49;50.86;100954.14;1699968;84;20591;-74
2022/07/20 00:51:13;;;;;;;;;;;;;;;17.46;50.96;100959.94;1700756;84;20531;-74
2022/07/20 00:53:39;;;;;;;;;;;;;;;17.44;51.04;100955.79;1700508;84;20864;-74
2022/07/20 00:56:06;;;;;;;;;;;;;;;17.43;51.15;100953.60;1699759;84;21142;-74
2022/07/20 00:58:32;;;;;;;;;;;;;;;17.40;51.23;100958.56;1700753;84;20461;-74
2022/07/20 01:00:58;;;;;;;;;;;;;;;17.38;51.34;100957.41;1700446;84;20192;-73
2022/07/20 01:03:24;;;;;;;;;;;;;;;17.36;51.43;100951.39;1700879;84;20232;-73
2022/07/20 01:05:49;;;;;;;;;;;;;;;17.34;51.52;100953.47;1700843;84;20311;-73
2022/07/20 01:08:15;;;;;;;;;;;;;;;17.33;51.57;100946.41;1700742;84;21149;-73
2022/07/20 01:10:41;;;;;;;;;;;;;;;17.32;51.63;100948.78;1699153;84;20261;-74
2022/07/20 01:13:07;;;;;;;;;;;;;;;17.29;51.70;100949.18;1700705;84;20236;-73
2022/07/20 01:15:33;;;;;;;;;;;;;;;17.23;51.77;100947.30;1699400;84;20176;-74
2022/07/20 01:17:59;;;;;;;;;;;;;;;17.21;51.85;100946.64;1700841;84;20768;-74
2022/07/20 01:20:25;;;;;;;;;;;;;;;17.19;51.88;100939.28;1700787;84;21154;-74
2022/07/20 01:22:51;;;;;;;;;;;;;;;17.17;51.94;100940.52;1684442;83;20187;-74
2022/07/20 01:25:17;;;;;;;;;;;;;;;17.15;52.00;100943.41;1694431;84;20153;-74
2022/07/20 01:27:43;;;;;;;;;;;;;;;17.12;52.06;100938.42;1693435;84;20848;-73
2022/07/20 01:30:10;;;;;;;;;;;;;;;17.09;52.14;100938.82;1693287;84;20523;-74
2022/07/20 01:32:36;;;;;;;;;;;;;;;17.06;52.22;100939.22;1689378;84;21067;-74
2022/07/20 01:35:02;;;;;;;;;;;;;;;17.04;52.29;100941.27;1697177;84;20291;-73
2022/07/20 01:37:29;;;;;;;;;;;;;;;17.03;52.36;100942.28;1692780;84;20205;-74
2022/07/20 01:39:55;;;;;;;;;;;;;;;16.99;52.45;100950.48;1694884;84;20219;-74
2022/07/20 01:42:22;;;;;;;;;;;;;;;16.96;52.48;100946.80;1695719;84;20196;-74
2022/07/20 01:44:48;;;;;;;;;;;;;;;16.96;52.51;100954.89;1694397;84;21121;-74
2022/07/20 01:47:13;;;;;;;;;;;;;;;16.93;52.56;100943.16;1697497;84;20180;-74
2022/07/20 01:49:39;;;;;;;;;;;;;;;16.90;52.66;100948.95;1692429;84;20218;-74
2022/07/20 01:52:05;;;;;;;;;;;;;;;16.86;52.76;100945.81;1699313;84;20187;-73
2022/07/20 01:54:31;;;;;;;;;;;;;;;16.83;52.87;100942.69;1686553;84;20252;-73
2022/07/20 01:56:57;;;;;;;;;;;;;;;16.78;53.00;100939.23;1700710;84;21814;-74
2022/07/20 01:59:23;;;;;;;;;;;;;;;16.77;53.07;100934.05;1700585;83;20216;-73
2022/07/20 02:01:49;;;;;;;;;;;;;;;16.76;53.16;100933.73;1697788;84;20753;-74
2022/07/20 02:04:14;;;;;;;;;;;;;;;16.74;53.23;100937.14;1681030;84;20161;-73
2022/07/20 02:06:40;;;;;;;;;;;;;;;16.74;53.28;100941.19;1700784;84;20785;-73
2022/07/20 02:09:06;;;;;;;;;;;;;;;16.72;53.31;100936.49;1704203;83;21064;-73
2022/07/20 02:11:32;;;;;;;;;;;;;;;16.70;53.38;100938.56;1699678;83;20260;-73
2022/07/20 02:13:58;;;;;;;;;;;;;;;16.67;53.41;100940.31;1704808;83;20834;-73
2022/07/20 02:16:24;;;;;;;;;;;;;;;16.64;53.51;100943.40;1694977;84;20165;-73
2022/07/20 02:18:52;;;;;;;;;;;;;;;16.62;53.61;100940.05;1694063;84;20164;-73
2022/07/20 02:21:19;;;;;;;;;;;;;;;16.60;53.67;100938.92;1711391;82;21885;-73
2022/07/20 02:23:45;;;;;;;;;;;;;;;16.59;53.77;100937.75;1696927;84;20470;-73
2022/07/20 02:26:11;;;;;;;;;;;;;;;16.57;53.84;100935.78;1700641;84;20205;-74
2022/07/20 02:28:37;;;;;;;;;;;;;;;16.55;53.91;100935.09;1694848;83;20189;-74
2022/07/20 02:31:03;;;;;;;;;;;;;;;16.50;54.01;100940.55;1692172;84;21158;-73
2022/07/20 02:33:29;;;;;;;;;;;;;;;16.48;54.07;100937.74;1706048;83;21193;-73
2022/07/20 02:35:55;;;;;;;;;;;;;;;16.46;54.13;100936.61;1700282;83;20223;-73
2022/07/20 02:38:21;;;;;;;;;;;;;;;16.46;54.18;100935.27;1695568;84;20252;-74
2022/07/20 02:40:46;;;;;;;;;;;;;;;16.43;54.23;100936.16;1688157;83;20178;-73
2022/07/20 02:43:12;;;;;;;;;;;;;;;16.40;54.28;100937.88;1700418;83;20207;-73
2022/07/20 02:45:38;;;;;;;;;;;;;;;16.37;54.36;100940.45;1695255;84;21186;-73
2022/07/20 02:48:04;;;;;;;;;;;;;;;16.35;54.42;100938.48;1689190;84;20188;-73
2022/07/20 02:50:33;;;;;;;;;;;;;;;16.32;54.49;100930.80;1697461;83;20151;-73
2022/07/20 02:52:59;;;;;;;;;;;;;;;16.33;54.57;100936.98;1709639;83;20141;-73
2022/07/20 02:55:25;;;;;;;;;;;;;;;16.33;54.60;100932.95;1700747;84;20153;-74
2022/07/20 02:57:51;;;;;;;;;;;;;;;16.30;54.68;100934.17;1696912;84;21830;-73
2022/07/20 03:00:17;;;;;;;;;;;;;;;16.29;54.76;100932.50;1692327;84;20450;-74
2022/07/20 03:02:43;;;;;;;;;;;;;;;16.30;54.84;100935.52;1698891;84;20200;-74
2022/07/20 03:05:09;;;;;;;;;;;;;;;16.31;54.88;100933.67;1693835;84;20184;-73
2022/07/20 03:07:35;;;;;;;;;;;;;;;16.29;54.94;100936.54;1700737;84;20314;-73
2022/07/20 03:10:01;;;;;;;;;;;;;;;16.28;55.05;100934.06;1694763;84;21178;-74
2022/07/20 03:12:26;;;;;;;;;;;;;;;16.27;55.15;100943.15;1699256;84;20188;-73
2022/07/20 03:14:52;;;;;;;;;;;;;;;16.26;55.23;100938.27;1702782;84;20713;-73
2022/07/20 03:17:18;;;;;;;;;;;;;;;16.29;55.29;100939.23;1726426;83;20227;-73
2022/07/20 03:19:45;;;;;;;;;;;;;;;16.30;55.36;100936.87;1727250;83;20183;-73
2022/07/20 03:22:10;;;;;;;;;;;;;;;16.31;55.45;100937.20;1728654;83;21257;-73
2022/07/20 03:24:37;;;;;;;;;;;;;;;16.34;55.54;100932.77;1727554;83;20167;-73
2022/07/20 03:27:03;;;;;;;;;;;;;;;16.38;55.57;100938.59;1726551;82;20191;-73
2022/07/20 03:29:29;;;;;;;;;;;;;;;16.43;55.61;100943.70;1726593;83;20526;-73
2022/07/20 03:31:55;;;;;;;;;;;;;;;16.49;55.66;100948.33;1726192;83;20266;-73
2022/07/20 03:34:21;;;;;;;;;;;;;;;16.56;55.65;100947.57;1727388;83;22033;-73
2022/07/20 03:36:48;;;;;;;;;;;;;;;16.63;55.67;100956.53;1727079;83;20254;-74
2022/07/20 03:39:15;;;;;;;;;;;;;;;16.70;55.67;100949.34;1727358;83;20167;-73
2022/07/20 03:41:41;;;;;;;;;;;;;;;16.77;55.72;100949.70;1726954;83;20153;-73
2022/07/20 03:44:07;;;;;;;;;;;;;;;16.87;55.75;100957.44;1728241;83;20262;-73
2022/07/20 03:46:33;;;;;;;;;;;;;;;16.98;55.77;100962.28;1728923;83;21804;-73
2022/07/20 03:48:59;;;;;;;;;;;;;;;17.10;55.77;100959.33;1727040;82;20703;-74
2022/07/20 03:51:24;;;;;;;;;;;;;;;17.51;55.93;100956.65;1729351;83;20191;-74
2022/07/20 03:53:50;;;;;;;;;;;;;;;18.14;55.87;100962.66;1729539;83;20680;-74
2022/07/20 03:56:16;;;;;;;;;;;;;;;18.82;55.65;100961.47;1727541;83;20219;-74
2022/07/20 03:58:42;;;;;;;;;;;;;;;19.46;55.37;100959.37;1728502;83;21172;-74
2022/07/20 04:01:08;;;;;;;;;;;;;;;20.06;55.09;100960.17;1722089;82;20152;-74
2022/07/20 04:03:34;;;;;;;;;;;;;;;20.66;54.73;100959.23;1729287;83;20222;-74
2022/07/20 04:06:00;;;;;;;;;;;;;;;21.41;54.41;100956.70;1710933;83;20156;-74
2022/07/20 04:08:26;;;;;;;;;;;;;;;22.15;53.84;100955.00;1729291;83;20164;-74
2022/07/20 04:10:52;;;;;;;;;;;;;;;22.87;53.04;100955.16;1729488;83;21190;-74
2022/07/20 04:13:18;;;;;;;;;;;;;;;23.53;52.38;100962.63;1729265;83;20206;-75
2022/07/20 04:15:44;;;;;;;;;;;;;;;24.00;51.70;100968.17;1720440;83;20185;-74
2022/07/20 04:18:10;;;;;;;;;;;;;;;24.49;51.11;100963.09;1715943;83;20886;-75
2022/07/20 04:20:36;;;;;;;;;;;;;;;24.93;50.52;100963.53;1678508;83;20928;-74
2022/07/20 04:23:02;;;;;;;;;;;;;;;25.34;49.92;100961.65;1715784;83;22170;-75
2022/07/20 04:25:28;;;;;;;;;;;;;;;25.62;49.29;100963.39;1715780;83;20243;-75
2022/07/20 04:27:54;;;;;;;;;;;;;;;25.93;48.76;100971.38;1715761;83;20283;-75
2022/07/20 04:30:20;;;;;;;;;;;;;;;26.07;48.11;100965.79;1715654;83;20504;-75
2022/07/20 04:32:45;;;;;;;;;;;;;;;26.49;47.65;100963.23;1715393;83;20176;-75
2022/07/20 04:35:11;;;;;;;;;;;;;;;26.81;47.01;100968.67;1714674;83;21810;-75
2022/07/20 04:37:37;;;;;;;;;;;;;;;26.90;46.41;100965.74;1713399;83;20180;-75
2022/07/20 04:40:04;;;;;;;;;;;;;;;27.09;45.94;100969.67;1715816;83;20204;-75
2022/07/20 04:42:30;;;;;;;;;;;;;;;27.13;45.22;100970.80;1715756;83;20667;-75
2022/07/20 04:44:56;;;;;;;;;;;;;;;27.01;44.85;100966.09;1713905;82;20204;-75
2022/07/20 04:47:22;;;;;;;;;;;;;;;26.87;44.90;100963.53;1709184;83;21837;-75
2022/07/20 04:49:48;;;;;;;;;;;;;;;26.70;45.07;100967.77;1717435;83;20264;-75
2022/07/20 04:52:14;;;;;;;;;;;;;;;26.55;45.20;100959.98;1694830;84;20276;-75
2022/07/20 04:54:41;;;;;;;;;;;;;;;26.51;45.33;100965.69;1710092;83;21386;-75
2022/07/20 04:57:07;;;;;;;;;;;;;;;26.58;45.25;100963.55;1705518;83;20487;-75
2022/07/20 04:59:33;;;;;;;;;;;;;;;26.80;45.12;100967.02;1709435;83;22707;-76
2022/07/20 05:01:59;;;;;;;;;;;;;;;26.92;44.91;100964.92;1714342;83;20318;-76
2022/07/20 05:04:25;;;;;;;;;;;;;;;27.04;44.81;100969.66;1710096;83;20164;-76
2022/07/20 05:06:51;;;;;;;;;;;;;;;27.30;44.58;100964.59;1704147;83;21270;-76
2022/07/20 05:09:17;;;;;;;;;;;;;;;27.55;44.28;100971.33;1708515;82;20186;-76
2022/07/20 05:11:43;;;;;;;;;;;;;;;27.78;44.05;100970.31;1716404;83;21867;-76
2022/07/20 05:14:09;;;;;;;;;;;;;;;27.88;43.68;100965.39;1709799;83;20445;-77
2022/07/20 05:16:35;;;;;;;;;;;;;;;27.85;43.35;100968.68;1687936;83;20393;-77
2022/07/20 05:19:01;;;;;;;;;;;;;;;27.99;43.07;100969.81;1686707;84;20732;-77
2022/07/20 05:21:28;;;;;;;;;;;;;;;28.16;42.91;100967.67;1693988;84;21165;-77
2022/07/20 05:23:54;;;;;;;;;;;;;;;28.23;42.57;100969.61;1693886;84;21846;-76
2022/07/20 05:26:19;;;;;;;;;;;;;;;28.02;41.91;100973.92;1697505;84;20175;-77
2022/07/20 05:28:45;;;;;;;;;;;;;;;27.86;41.43;100973.08;1696298;83;20743;-76
2022/07/20 05:31:13;;;;;;;;;;;;;;;27.76;40.98;100975.80;1697524;83;20705;-76
2022/07/20 05:33:39;;;;;;;;;;;;;;;27.74;40.63;100975.22;1687502;84;20413;-76
2022/07/20 05:36:05;;;;;;;;;;;;;;;27.95;40.31;100976.93;1695097;83;21831;-76
2022/07/20 05:38:31;;;;;;;;;;;;;;;28.17;40.09;100966.59;1696041;84;20657;-76
2022/07/20 05:40:57;;;;;;;;;;;;;;;28.39;39.73;100979.23;1693179;83;20112;-76
2022/07/20 05:43:23;;;;;;;;;;;;;;;28.46;39.48;100979.78;1682224;83;20651;-76
2022/07/20 05:45:49;;;;;;;;;;;;;;;28.46;39.11;100981.16;1686331;83;20851;-76
2022/07/20 05:48:15;;;;;;;;;;;;;;;28.44;38.86;100979.22;1692273;83;21885;-76
2022/07/20 05:50:41;;;;;;;;;;;;;;;28.51;38.61;100979.22;1696442;84;20168;-76
2022/07/20 05:53:08;;;;;;;;;;;;;;;28.66;38.33;100974.28;1690649;83;20402;-79
2022/07/20 05:55:34;;;;;;;;;;;;;;;28.66;37.93;100977.03;1697198;83;20634;-78
2022/07/20 05:58:00;;;;;;;;;;;;;;;28.80;37.73;100978.69;1692120;84;20112;-78
2022/07/20 06:00:26;;;;;;;;;;;;;;;28.88;37.55;100973.48;1694518;83;21778;-77
2022/07/20 06:02:52;;;;;;;;;;;;;;;29.14;37.44;100983.30;1693329;84;20541;-77
2022/07/20 06:05:18;;;;;;;;;;;;;;;29.37;37.11;100987.39;1696059;84;20619;-78
2022/07/20 06:07:44;;;;;;;;;;;;;;;29.55;37.01;100990.08;1684895;84;20604;-77
2022/07/20 06:10:10;;;;;;;;;;;;;;;29.94;36.85;100986.07;1699016;84;20163;-77
2022/07/20 06:12:36;;;;;;;;;;;;;;;30.02;36.40;100981.32;1687340;84;22527;-77
2022/07/20 06:15:02;;;;;;;;;;;;;;;30.20;36.36;100984.23;1684912;83;20516;-77
2022/07/20 06:17:38;;;;;;;;;;;;;;;30.40;36.13;100975.58;1693954;83;20590;-77
2022/07/20 06:20:11;;;;;;;;;;;;;;;30.40;35.84;100974.20;1713876;83;20718;-77
2022/07/20 06:22:37;;;;;;;;;;;;;;;30.29;35.58;100980.88;1717749;83;20188;-78
2022/07/20 06:25:04;;;;;;;;;;;;;;;30.31;35.44;100982.78;1714912;83;21823;-77
2022/07/20 06:27:30;;;;;;;;;;;;;;;30.49;35.43;100986.25;1720156;83;20187;-78
2022/07/20 06:29:57;;;;;;;;;;;;;;;30.77;35.27;100985.46;1712648;83;20256;-78
2022/07/20 06:32:23;;;;;;;;;;;;;;;30.66;34.80;100981.15;1717026;83;20668;-78
2022/07/20 06:34:49;;;;;;;;;;;;;;;30.44;34.52;100980.78;1718008;83;20747;-77
2022/07/20 06:37:15;;;;;;;;;;;;;;;30.33;34.38;100983.34;1714706;83;21911;-77
2022/07/20 06:39:41;;;;;;;;;;;;;;;30.24;34.20;100988.06;1717777;83;20191;-78
2022/07/20 06:42:06;;;;;;;;;;;;;;;30.12;34.02;100987.58;1715945;83;20849;-77
2022/07/20 06:44:32;;;;;;;;;;;;;;;30.09;33.95;100985.41;1714881;83;20590;-78
2022/07/20 06:46:58;;;;;;;;;;;;;;;30.22;33.92;100987.51;1715821;83;20702;-77
2022/07/20 06:49:25;;;;;;;;;;;;;;;30.35;33.89;100986.06;1714951;83;21973;-77
2022/07/20 06:51:51;;;;;;;;;;;;;;;30.59;33.75;100988.92;1716618;83;20112;-77
2022/07/20 06:54:17;;;;;;;;;;;;;;;30.58;33.55;100986.72;1718372;83;20195;-78
2022/07/20 06:56:43;;;;;;;;;;;;;;;30.77;33.53;100990.97;1718209;83;20646;-77
2022/07/20 06:59:09;;;;;;;;;;;;;;;31.12;33.52;100985.13;1718350;83;20243;-77
2022/07/20 07:01:35;;;;;;;;;;;;;;;31.38;33.21;100988.98;1718257;83;22498;-78
2022/07/20 07:04:01;;;;;;;;;;;;;;;31.41;33.23;100991.16;1718098;83;20187;-78
2022/07/20 07:06:28;;;;;;;;;;;;;;;31.81;33.16;100992.03;1718423;83;20200;-78
2022/07/20 07:08:55;;;;;;;;;;;;;;;32.08;32.95;101000.53;1718072;83;21535;-78
2022/07/20 07:11:21;;;;;;;;;;;;;;;32.32;32.85;100996.85;1718347;83;20153;-78
2022/07/20 07:13:47;;;;;;;;;;;;;;;32.47;32.72;100986.95;1718300;83;21745;-78
2022/07/20 07:16:13;;;;;;;;;;;;;;;32.67;32.57;100996.30;1717880;83;20743;-78
2022/07/20 07:18:39;;;;;;;;;;;;;;;32.85;32.42;100989.91;1718380;83;20211;-78
2022/07/20 07:21:05;;;;;;;;;;;;;;;32.72;32.05;100983.80;1717799;83;20616;-78
2022/07/20 07:23:30;;;;;;;;;;;;;;;32.66;31.74;100983.60;1718484;83;20156;-78
2022/07/20 07:25:56;;;;;;;;;;;;;;;32.44;31.41;100981.45;1718135;83;21918;-78
2022/07/20 07:28:22;;;;;;;;;;;;;;;32.34;31.23;100989.90;1718407;83;21375;-78
2022/07/20 07:30:51;;;;;;;;;;;;;;;32.36;30.99;100991.00;1718279;83;20187;-78
2022/07/20 07:33:17;;;;;;;;;;;;;;;32.48;30.82;100988.57;1718405;83;20639;-78
2022/07/20 07:35:43;;;;;;;;;;;;;;;32.54;30.61;100983.24;1718123;83;20196;-78
2022/07/20 07:38:09;;;;;;;;;;;;;;;32.58;30.42;100985.11;1717792;83;21833;-78
2022/07/20 07:40:35;;;;;;;;;;;;;;;32.71;30.24;100990.44;1714585;83;20141;-78
2022/07/20 07:43:01;;;;;;;;;;;;;;;32.92;30.10;100990.33;1716984;83;20744;-78
2022/07/20 07:45:27;;;;;;;;;;;;;;;32.92;29.85;100990.33;1718327;83;20700;-78
2022/07/20 07:47:53;;;;;;;;;;;;;;;33.00;29.78;100982.73;1718363;83;20148;-78
2022/07/20 07:50:19;;;;;;;;;;;;;;;33.24;29.79;100986.72;1713353;83;21781;-78
2022/07/20 07:52:45;;;;;;;;;;;;;;;33.39;29.52;100983.63;1718182;83;20794;-78
2022/07/20 07:55:11;;;;;;;;;;;;;;;33.41;29.42;100983.33;1713239;83;20204;-77
2022/07/20 07:57:37;;;;;;;;;;;;;;;33.69;29.30;100990.51;1717330;83;20746;-76
2022/07/20 08:00:04;;;;;;;;;;;;;;;33.93;29.18;100987.48;1715927;83;20340;-78
2022/07/20 08:02:30;;;;;;;;;;;;;;;34.19;29.09;100990.52;1709437;83;21887;-77
2022/07/20 08:04:56;;;;;;;;;;;;;;;34.11;28.95;100990.11;1706345;83;20871;-78
2022/07/20 08:07:22;;;;;;;;;;;;;;;34.22;28.77;100987.13;1705941;83;20199;-78
2022/07/20 08:09:48;;;;;;;;;;;;;;;34.38;28.57;100989.77;1708687;83;20707;-78
2022/07/20 08:12:13;;;;;;;;;;;;;;;34.39;28.33;100992.23;1696429;83;20346;-78
2022/07/20 08:14:39;;;;;;;;;;;;;;;34.21;28.05;100991.02;1710507;83;21842;-78
2022/07/20 08:17:05;;;;;;;;;;;;;;;34.28;28.08;100983.09;1716165;82;20929;-78
2022/07/20 08:19:31;;;;;;;;;;;;;;;34.60;28.10;100985.61;1716584;83;20310;-77
2022/07/20 08:21:57;;;;;;;;;;;;;;;34.91;28.04;100984.27;1710768;83;20589;-78
2022/07/20 08:24:23;;;;;;;;;;;;;;;35.15;27.98;100975.63;1714549;83;20541;-79
2022/07/20 08:26:49;;;;;;;;;;;;;;;35.26;27.89;100985.27;1708009;83;21830;-79
2022/07/20 08:29:15;;;;;;;;;;;;;;;35.37;27.83;100976.91;1718154;83;20738;-78
2022/07/20 08:31:41;;;;;;;;;;;;;;;35.59;27.90;100985.15;1717832;83;20179;-79
2022/07/20 08:34:07;;;;;;;;;;;;;;;35.89;27.76;100983.45;1716849;83;20700;-79
2022/07/20 08:36:33;;;;;;;;;;;;;;;35.96;27.54;100986.56;1711467;83;20652;-79
2022/07/20 08:38:58;;;;;;;;;;;;;;;35.74;27.38;100982.52;1717346;83;21846;-79
2022/07/20 08:41:25;;;;;;;;;;;;;;;35.67;27.36;100983.00;1701970;83;20821;-78
2022/07/20 08:43:51;;;;;;;;;;;;;;;35.48;27.08;100981.03;1700955;83;20157;-78
2022/07/20 08:46:17;;;;;;;;;;;;;;;35.34;26.90;100980.34;1698392;83;20630;-78
2022/07/20 08:48:43;;;;;;;;;;;;;;;35.24;26.68;100973.13;1706386;83;20203;-78
2022/07/20 08:51:09;;;;;;;;;;;;;;;35.01;26.41;100975.70;1705362;82;21788;-77
2022/07/20 08:53:35;;;;;;;;;;;;;;;34.92;26.33;100977.59;1703637;83;20188;-78
2022/07/20 08:56:01;;;;;;;;;;;;;;;34.99;26.19;100978.78;1708538;83;20215;-78
2022/07/20 08:58:27;;;;;;;;;;;;;;;34.98;25.99;100981.30;1703851;83;20719;-77
2022/07/20 09:00:53;;;;;;;;;;;;;;;34.91;25.85;100978.16;1697652;83;20112;-78
2022/07/20 09:03:19;;;;;;;;;;;;;;;35.02;25.88;100979.53;1697395;83;22496;-78
2022/07/20 09:05:45;;;;;;;;;;;;;;;35.25;25.85;100976.73;1708269;83;20551;-79
2022/07/20 09:08:12;;;;;;;;;;;;;;;35.43;25.74;100979.81;1705854;83;20223;-79
2022/07/20 09:10:41;;;;;;;;;;;;;;;35.48;25.66;100981.03;1700413;83;20719;-79
2022/07/20 09:13:13;;;;;;;;;;;;;;;35.47;25.62;100981.59;1696993;84;20447;-79
2022/07/20 09:15:49;;;;;;;;;;;;;;;35.46;25.58;100982.77;1695270;84;22579;-79
2022/07/20 09:18:26;;;;;;;;;;;;;;;35.52;25.40;100973.70;1692328;84;20973;-79
2022/07/20 09:20:54;;;;;;;;;;;;;;;35.80;25.44;100972.32;1702148;83;20186;-79
2022/07/20 09:23:22;;;;;;;;;;;;;;;36.02;25.28;100973.58;1719685;83;20557;-79
2022/07/20 09:25:54;;;;;;;;;;;;;;;36.10;25.18;100978.10;1705157;83;20684;-79
2022/07/20 09:28:20;;;;;;;;;;;;;;;36.24;25.13;100964.86;1710690;83;21940;-79
2022/07/20 09:30:51;;;;;;;;;;;;;;;36.37;25.05;100963.86;1719972;83;20199;-79
2022/07/20 09:33:25;;;;;;;;;;;;;;;36.46;24.92;100967.43;1719854;83;20167;-79
2022/07/20 09:35:51;;;;;;;;;;;;;;;36.53;24.85;100970.53;1711718;83;20612;-78
2022/07/20 09:38:17;;;;;;;;;;;;;;;36.43;24.41;100967.52;1720477;83;20818;-79
2022/07/20 09:40:45;;;;;;;;;;;;;;;36.41;24.45;100962.88;1697687;83;21776;-79
2022/07/20 09:43:28;;;;;;;;;;;;;;;36.49;24.40;100965.38;1695517;83;20112;-79
2022/07/20 09:45:54;;;;;;;;;;;;;;;36.46;24.32;100951.58;1720328;83;20247;-79
2022/07/20 09:48:23;;;;;;;;;;;;;;;36.41;24.22;100949.55;1712479;83;21251;-79
2022/07/20 09:50:48;;;;;;;;;;;;;;;36.48;24.08;100948.48;1700086;83;20199;-78
2022/07/20 09:53:14;;;;;;;;;;;;;;;36.54;23.90;100947.16;1702840;83;21855;-78
2022/07/20 09:55:40;;;;;;;;;;;;;;;36.43;23.46;100954.20;1719457;83;20480;-78
2022/07/20 09:58:07;;;;;;;;;;;;;;;36.15;23.28;100950.14;1720457;83;20207;-79
2022/07/20 10:00:33;;;;;;;;;;;;;;;36.22;23.30;100953.23;1720206;82;20787;-78
2022/07/20 10:03:00;;;;;;;;;;;;;;;36.07;23.15;100951.74;1706249;83;20187;-79
2022/07/20 10:05:29;;;;;;;;;;;;;;;36.03;23.16;100948.80;1680129;83;21850;-79
2022/07/20 10:07:54;;;;;;;;;;;;;;;35.96;22.99;100946.30;1680812;84;20271;-79
2022/07/20 10:10:20;;;;;;;;;;;;;;;36.11;23.03;100946.38;1691742;84;20269;-79
2022/07/20 10:12:46;;;;;;;;;;;;;;;36.34;22.93;100943.11;1707206;83;20960;-79
2022/07/20 10:15:15;;;;;;;;;;;;;;;36.34;22.73;100950.62;1710957;83;20196;-79
2022/07/20 10:17:44;;;;;;;;;;;;;;;36.22;22.59;100947.69;1708075;83;21882;-79
2022/07/20 10:20:33;;;;;;;;;;;;;;;36.01;22.44;100945.55;1699574;84;20130;-79
2022/07/20 10:23:18;;;;;;;;;;;;;;;36.02;22.61;100951.92;1705671;83;20177;-79
2022/07/20 10:25:44;;;;;;;;;;;;;;;36.15;22.59;100952.92;1691267;84;21394;-79
2022/07/20 10:28:28;;;;;;;;;;;;;;;36.21;22.50;100954.41;1706558;84;20432;-79
2022/07/20 10:31:04;;;;;;;;;;;;;;;36.19;22.51;100946.95;1694544;84;21832;-79
2022/07/20 10:33:31;;;;;;;;;;;;;;;36.25;22.43;100952.58;1701149;84;20151;-79
2022/07/20 10:38:41;;;;;;;;;;;;;;;36.24;22.25;100937.87;1705404;83;20604;-78
2022/07/20 10:44:22;;;;;;;;;;;;;;;36.08;21.93;100933.97;1702026;84;21833;-78
2022/07/20 10:46:49;;;;;;;;;;;;;;;36.02;21.69;100930.52;1701001;84;20136;-79
2022/07/20 10:49:15;;;;;;;;;;;;;;;36.12;21.62;100939.69;1698522;84;20160;-79
2022/07/20 10:51:41;;;;;;;;;;;;;;;36.11;21.33;100927.76;1701712;84;21313;-79
2022/07/20 10:54:34;;;;;;;;;;;;;;;35.94;20.98;100925.78;1707085;84;20247;-79
2022/07/20 10:57:00;;;;;;;;;;;;;;;35.86;20.70;100929.36;1707549;83;21948;-78
2022/07/20 10:59:26;;;;;;;;;;;;;;;35.79;20.52;100929.03;1701461;83;20148;-79
2022/07/20 11:01:52;;;;;;;;;;;;;;;35.77;20.53;100931.33;1706602;83;20255;-79
2022/07/20 11:04:19;;;;;;;;;;;;;;;35.88;20.57;100924.31;1702928;83;21182;-79
2022/07/20 11:06:45;;;;;;;;;;;;;;;35.95;20.54;100921.05;1709370;84;20112;-80
2022/07/20 11:09:11;;;;;;;;;;;;;;;35.90;20.50;100919.23;1708915;83;21792;-80
2022/07/20 11:11:37;;;;;;;;;;;;;;;35.87;20.50;100919.90;1702214;84;21102;-79
2022/07/20 11:14:05;;;;;;;;;;;;;;;36.01;20.58;100923.33;1704938;84;20416;-79
2022/07/20 11:16:33;;;;;;;;;;;;;;;36.02;20.44;100918.02;1698475;84;21352;-81
2022/07/20 11:19:01;;;;;;;;;;;;;;;36.10;20.50;100912.83;1723724;83;20219;-79
2022/07/20 11:21:31;;;;;;;;;;;;;;;36.19;20.36;100917.78;1699398;84;21976;-79
2022/07/20 11:23:57;;;;;;;;;;;;;;;36.22;20.35;100919.91;1694060;83;20852;-80
2022/07/20 11:26:24;;;;;;;;;;;;;;;36.29;20.25;100911.88;1699533;83;20437;-79
2022/07/20 11:28:57;;;;;;;;;;;;;;;36.39;20.29;100915.70;1698264;84;20822;-80
2022/07/20 11:31:28;;;;;;;;;;;;;;;36.45;20.21;100915.80;1703439;84;20190;-79
2022/07/20 11:33:55;;;;;;;;;;;;;;;36.45;20.20;100915.80;1691453;84;21731;-79
2022/07/20 11:36:24;;;;;;;;;;;;;;;36.32;20.03;100902.89;1695796;83;20187;-79
2022/07/20 11:38:55;;;;;;;;;;;;;;;36.13;20.04;100901.05;1696254;83;20206;-79
2022/07/20 11:41:30;;;;;;;;;;;;;;;36.05;20.15;100895.72;1700149;84;20529;-79
2022/07/20 11:43:56;;;;;;;;;;;;;;;36.06;20.21;100892.62;1703202;83;20144;-79
2022/07/20 11:46:24;;;;;;;;;;;;;;;36.14;20.23;100894.36;1707679;83;22314;-79
2022/07/20 11:48:56;;;;;;;;;;;;;;;36.06;20.09;100887.06;1710083;83;20096;-79
2022/07/20 11:51:22;;;;;;;;;;;;;;;36.06;20.00;100894.58;1718133;83;20469;-80
2022/07/20 11:53:48;;;;;;;;;;;;;;;36.11;19.96;100893.60;1721935;83;20658;-80
2022/07/20 11:56:16;;;;;;;;;;;;;;;36.22;19.83;100889.34;1724112;82;20158;-79
2022/07/20 11:58:43;;;;;;;;;;;;;;;36.06;19.45;100889.84;1724997;83;21899;-79
2022/07/20 12:01:13;;;;;;;;;;;;;;;35.98;19.39;100893.44;1695877;84;20171;-79
2022/07/20 12:03:41;;;;;;;;;;;;;;;36.10;19.32;100894.77;1706587;84;20327;-79
2022/07/20 12:06:08;;;;;;;;;;;;;;;36.06;19.18;100887.06;1707099;84;20675;-80
2022/07/20 12:08:34;;;;;;;;;;;;;;;36.01;19.12;100886.41;1704309;83;20152;-80
2022/07/20 12:11:00;;;;;;;;;;;;;;;36.16;19.18;100887.89;1706542;84;21870;-79
2022/07/20 12:13:27;;;;;;;;;;;;;;;36.37;19.14;100886.05;1704977;84;20349;-80
2022/07/20 12:16:00;;;;;;;;;;;;;;;36.31;18.94;100881.83;1713656;83;20485;-80
2022/07/20 12:18:41;;;;;;;;;;;;;;;36.29;19.00;100878.54;1719523;82;21379;-80
2022/07/20 12:21:10;;;;;;;;;;;;;;;36.29;19.08;100872.98;1709571;83;20869;-80
2022/07/20 12:23:36;;;;;;;;;;;;;;;36.36;19.11;100869.12;1692070;83;21806;-79
2022/07/20 12:26:02;;;;;;;;;;;;;;;36.50;19.15;100869.73;1697334;83;20645;-79
2022/07/20 12:28:33;;;;;;;;;;;;;;;36.55;19.14;100866.83;1700437;83;20139;-80
2022/07/20 12:31:18;;;;;;;;;;;;;;;36.45;18.94;100869.94;1712514;83;20563;-79
2022/07/20 12:34:11;;;;;;;;;;;;;;;36.35;18.81;100872.47;1704162;83;20460;-80
2022/07/20 12:36:39;;;;;;;;;;;;;;;36.23;18.59;100869.58;1698165;83;21859;-79
2022/07/20 12:39:08;;;;;;;;;;;;;;;36.32;18.66;100870.93;1706765;83;20188;-79
2022/07/20 12:41:34;;;;;;;;;;;;;;;36.50;18.78;100871.13;1695016;83;20116;-78
2022/07/20 12:43:59;;;;;;;;;;;;;;;36.61;18.82;100866.05;1703841;83;20655;-79